createdAt,value
2023-01-27T00:01:04.138Z,40.10
2023-01-27T00:03:32.243Z,45.30
2023-01-27T00:06:01.430Z,43.70
2023-01-27T00:08:29.744Z,38.60
2023-01-27T00:11:18.276Z,43.70
2023-01-27T00:13:46.144Z,40.60
2023-01-27T00:16:14.307Z,47.20
2023-01-27T00:18:42.172Z,41.40
2023-01-27T00:21:28.454Z,38.90
2023-01-27T00:24:15.139Z,42.30
2023-01-27T00:26:42.904Z,41.30
2023-01-27T00:29:10.560Z,41.00
2023-01-27T00:31:56.862Z,41.90
2023-01-27T00:34:24.596Z,48.40
2023-01-27T00:36:52.443Z,46.20
2023-01-27T00:39:20.199Z,43.30
2023-01-27T00:41:48.021Z,42.70
2023-01-27T00:44:15.886Z,49.50
2023-01-27T00:46:43.760Z,45.30
2023-01-27T00:49:13.486Z,42.40
2023-01-27T00:51:42.010Z,39.40
2023-01-27T00:54:09.918Z,45.00
2023-01-27T00:56:37.877Z,41.20
2023-01-27T00:59:06.104Z,42.80
2023-01-27T01:01:34.561Z,41.20
2023-01-27T01:04:02.438Z,37.90
2023-01-27T01:06:30.538Z,38.70
2023-01-27T01:08:58.483Z,38.30
2023-01-27T01:11:26.434Z,43.30
2023-01-27T01:13:56.418Z,40.20
2023-01-27T01:16:25.337Z,38.30
2023-01-27T01:18:53.561Z,44.50
2023-01-27T01:21:21.394Z,39.50
2023-01-27T01:23:49.636Z,40.30
2023-01-27T01:26:18.101Z,42.70
2023-01-27T01:28:46.279Z,38.50
2023-01-27T01:31:18.805Z,39.90
2023-01-27T01:33:49.172Z,37.40
2023-01-27T01:36:19.023Z,37.50
2023-01-27T01:38:47.588Z,37.90
2023-01-27T01:41:17.451Z,40.80
2023-01-27T01:43:45.593Z,37.50
2023-01-27T01:46:13.810Z,38.90
2023-01-27T01:48:42.809Z,36.20
2023-01-27T01:51:10.880Z,38.70
2023-01-27T01:53:42.002Z,35.50
2023-01-27T01:56:12.240Z,35.40
2023-01-27T01:58:44.844Z,30.60
2023-01-27T02:01:14.472Z,34.60
2023-01-27T02:03:43.571Z,33.20
2023-01-27T02:06:11.784Z,32.90
2023-01-27T02:08:41.655Z,32.00
2023-01-27T02:11:10.034Z,33.10
2023-01-27T02:13:39.016Z,31.90
2023-01-27T02:16:07.804Z,31.30
2023-01-27T02:18:35.761Z,33.00
2023-01-27T02:21:04.774Z,30.70
2023-01-27T02:23:35.631Z,31.50
2023-01-27T02:26:24.346Z,28.00
2023-01-27T02:29:18.637Z,28.40
2023-01-27T02:31:46.593Z,31.40
2023-01-27T02:34:16.812Z,33.20
2023-01-27T02:36:50.167Z,35.60
2023-01-27T02:39:20.052Z,33.00
2023-01-27T02:41:52.623Z,32.40
2023-01-27T02:44:20.868Z,34.50
2023-01-27T02:46:48.754Z,35.20
2023-01-27T02:49:16.492Z,34.10
2023-01-27T02:51:44.265Z,35.30
2023-01-27T02:54:12.074Z,35.90
2023-01-27T02:56:39.898Z,36.50
2023-01-27T02:59:08.332Z,29.90
2023-01-27T03:01:36.146Z,29.80
2023-01-27T03:04:04.091Z,35.20
2023-01-27T03:06:31.817Z,32.00
2023-01-27T03:08:59.572Z,32.20
2023-01-27T03:11:46.032Z,34.20
2023-01-27T03:14:13.812Z,31.80
2023-01-27T03:23:54.022Z,30.60
2023-01-27T03:26:21.866Z,29.20
2023-01-27T03:29:09.555Z,33.20
2023-01-27T03:31:37.646Z,31.00
2023-01-27T03:34:05.644Z,32.30
2023-01-27T03:36:52.391Z,30.90
2023-01-27T03:39:38.755Z,32.20
2023-01-27T03:42:25.196Z,32.00
2023-01-27T03:45:11.703Z,30.20
2023-01-27T03:47:39.793Z,30.50
2023-01-27T03:50:11.430Z,33.30
2023-01-27T03:52:39.561Z,32.00
2023-01-27T03:55:09.565Z,33.30
2023-01-27T03:57:38.362Z,34.30
2023-01-27T04:00:06.535Z,35.10
2023-01-27T04:02:53.085Z,34.10
2023-01-27T04:05:40.085Z,29.80
2023-01-27T04:08:07.851Z,37.80
2023-01-27T04:10:35.626Z,35.30
2023-01-27T04:13:03.366Z,35.90
2023-01-27T04:15:31.232Z,35.90
2023-01-27T04:17:58.971Z,34.10
2023-01-27T04:20:26.693Z,35.90
2023-01-27T04:22:54.552Z,33.80
2023-01-27T04:25:22.328Z,32.10
2023-01-27T04:27:50.125Z,39.90
2023-01-27T04:30:18.015Z,39.60
2023-01-27T04:32:45.769Z,32.50
2023-01-27T04:35:14.311Z,32.90
2023-01-27T04:37:42.268Z,35.00
2023-01-27T04:40:10.762Z,37.90
2023-01-27T04:42:38.550Z,36.80
2023-01-27T04:45:06.607Z,39.40
2023-01-27T04:47:34.350Z,41.90
2023-01-27T04:50:02.397Z,38.50
2023-01-27T04:52:30.734Z,34.70
2023-01-27T04:54:58.505Z,40.10
2023-01-27T04:57:28.053Z,39.80
2023-01-27T04:59:55.871Z,40.30
2023-01-27T05:02:23.668Z,42.60
2023-01-27T05:04:51.527Z,43.80
2023-01-27T05:07:19.240Z,41.30
2023-01-27T05:09:46.992Z,40.50
2023-01-27T05:12:14.969Z,42.40
2023-01-27T05:14:42.713Z,37.10
2023-01-27T05:17:10.693Z,45.60
2023-01-27T05:19:38.447Z,39.20
2023-01-27T05:22:06.581Z,45.70
2023-01-27T05:24:34.516Z,42.50
2023-01-27T05:27:02.482Z,45.30
2023-01-27T05:29:30.425Z,46.00
2023-01-27T05:31:58.336Z,46.90
2023-01-27T05:34:26.167Z,45.40
2023-01-27T05:36:53.936Z,44.20
2023-01-27T05:39:21.840Z,48.00
2023-01-27T05:41:50.510Z,40.90
2023-01-27T05:44:18.345Z,49.60
2023-01-27T05:46:46.512Z,43.20
2023-01-27T05:49:15.092Z,48.30
2023-01-27T05:51:43.108Z,44.40
2023-01-27T05:54:11.036Z,38.20
2023-01-27T05:56:39.432Z,45.30
2023-01-27T05:59:07.720Z,48.00
2023-01-27T06:01:37.541Z,41.70
2023-01-27T06:04:05.690Z,45.00
2023-01-27T06:06:33.916Z,46.80
2023-01-27T06:09:01.814Z,47.70
2023-01-27T06:11:29.867Z,45.30
2023-01-27T06:13:57.860Z,44.50
2023-01-27T06:16:25.739Z,48.50
2023-01-27T06:18:53.569Z,44.30
2023-01-27T06:21:21.448Z,41.60
2023-01-27T06:23:49.752Z,42.90
2023-01-27T06:26:19.250Z,45.90
2023-01-27T06:28:47.531Z,48.50
2023-01-27T06:31:16.921Z,44.40
2023-01-27T06:33:44.949Z,45.40
2023-01-27T06:36:16.600Z,49.00
2023-01-27T06:38:44.507Z,49.80
2023-01-27T06:41:12.660Z,47.20
2023-01-27T06:43:40.568Z,49.40
2023-01-27T06:46:08.605Z,45.90
2023-01-27T06:48:38.315Z,49.00
2023-01-27T06:51:06.355Z,49.20
2023-01-27T06:53:35.178Z,45.80
2023-01-27T06:56:03.415Z,46.30
2023-01-27T06:58:33.029Z,43.00
2023-01-27T07:01:00.955Z,46.20
2023-01-27T07:03:28.767Z,43.90
2023-01-27T07:05:56.616Z,45.90
2023-01-27T07:08:24.583Z,48.30
2023-01-27T07:10:52.595Z,42.20
2023-01-27T07:15:55.998Z,48.50
2023-01-27T07:18:22.988Z,46.50
2023-01-27T07:20:49.701Z,42.50
2023-01-27T07:23:16.236Z,43.70
2023-01-27T07:25:44.141Z,38.50
2023-01-27T07:28:10.674Z,38.10
2023-01-27T07:30:38.362Z,43.10
2023-01-27T07:33:05.723Z,39.40
2023-01-27T07:35:34.800Z,42.90
2023-01-27T07:38:01.301Z,42.20
2023-01-27T07:40:27.878Z,39.40
2023-01-27T07:42:57.423Z,37.70
2023-01-27T07:45:23.854Z,35.00
2023-01-27T07:47:50.260Z,39.30
2023-01-27T07:50:16.884Z,34.40
2023-01-27T07:52:43.307Z,33.90
2023-01-27T07:55:09.679Z,32.20
2023-01-27T07:57:36.240Z,40.00
2023-01-27T08:00:05.135Z,34.30
2023-01-27T08:02:31.811Z,35.20
2023-01-27T08:04:58.337Z,33.00
2023-01-27T08:07:24.778Z,27.90
2023-01-27T08:09:53.807Z,33.40
2023-01-27T08:12:20.350Z,31.60
2023-01-27T08:14:46.945Z,24.10
2023-01-27T08:17:13.378Z,24.40
2023-01-27T08:19:39.739Z,24.70
2023-01-27T08:22:06.143Z,23.40
2023-01-27T08:24:32.527Z,25.60
2023-01-27T08:26:58.980Z,29.20
2023-01-27T08:29:25.353Z,28.80
2023-01-27T08:31:51.947Z,21.40
2023-01-27T08:34:18.539Z,24.60
2023-01-27T08:36:44.964Z,24.80
2023-01-27T08:39:11.386Z,27.90
2023-01-27T08:41:37.984Z,25.00
2023-01-27T08:44:04.370Z,24.10
2023-01-27T08:46:31.057Z,28.60
2023-01-27T08:48:57.637Z,27.50
2023-01-27T08:51:24.156Z,27.30
2023-01-27T08:53:50.931Z,26.90
2023-01-27T08:56:17.859Z,29.70
2023-01-27T08:59:02.189Z,32.60
2023-01-27T09:01:30.115Z,33.90
2023-01-27T09:03:57.990Z,30.90
2023-01-27T09:06:25.795Z,34.50
2023-01-27T09:09:11.309Z,30.10
2023-01-27T09:11:41.221Z,28.10
2023-01-27T09:14:09.312Z,31.40
2023-01-27T09:16:37.090Z,28.00
2023-01-27T09:19:05.155Z,29.40
2023-01-27T09:21:32.975Z,30.00
2023-01-27T09:24:00.982Z,24.30
2023-01-27T09:26:28.826Z,24.30
2023-01-27T09:28:56.887Z,29.10
2023-01-27T09:31:24.941Z,26.30
2023-01-27T09:33:52.973Z,22.20
2023-01-27T09:36:21.547Z,26.90
2023-01-27T09:38:55.606Z,35.20
2023-01-27T09:41:36.654Z,36.50
2023-01-27T09:44:16.869Z,59.10
2023-01-27T09:46:47.823Z,41.70
2023-01-27T09:49:15.522Z,27.40
2023-01-27T09:51:43.342Z,43.10
2023-01-27T09:54:23.471Z,88.60
2023-01-27T09:56:51.403Z,62.30
2023-01-27T09:59:41.478Z,41.50
2023-01-27T10:02:39.840Z,31.00
2023-01-27T10:05:10.843Z,34.20
2023-01-27T10:07:57.778Z,29.40
2023-01-27T10:10:25.620Z,27.40
2023-01-27T10:12:56.468Z,28.40
2023-01-27T10:15:40.081Z,30.30
2023-01-27T10:18:26.744Z,23.80
2023-01-27T10:21:11.655Z,22.80
2023-01-27T10:23:51.992Z,24.90
2023-01-27T10:26:29.198Z,24.20
2023-01-27T10:29:09.967Z,30.70
2023-01-27T10:31:43.399Z,39.60
2023-01-27T10:34:22.719Z,38.90
2023-01-27T10:36:55.892Z,34.10
2023-01-27T10:39:47.514Z,31.70
2023-01-27T10:42:30.668Z,34.70
2023-01-27T10:45:14.040Z,46.00
2023-01-27T10:48:00.616Z,36.50
2023-01-27T10:50:31.105Z,33.30
2023-01-27T10:52:58.984Z,38.40
2023-01-27T10:55:33.925Z,29.80
2023-01-27T10:58:13.816Z,32.30
2023-01-27T11:01:18.080Z,33.70
2023-01-27T11:03:38.352Z,29.10
2023-01-27T11:06:12.580Z,26.60
2023-01-27T11:08:45.342Z,30.40
2023-01-27T11:11:33.196Z,39.30
2023-01-27T11:14:07.097Z,37.60
2023-01-27T11:16:52.036Z,39.80
2023-01-27T11:19:26.075Z,32.50
2023-01-27T11:22:06.803Z,40.70
2023-01-27T11:24:44.697Z,32.40
2023-01-27T11:27:33.351Z,28.10
2023-01-27T11:30:15.118Z,32.50
2023-01-27T11:32:48.682Z,30.30
2023-01-27T11:35:16.665Z,29.60
2023-01-27T11:37:46.480Z,28.70
2023-01-27T11:40:34.549Z,30.10
2023-01-27T11:43:02.779Z,32.60
2023-01-27T11:45:34.053Z,35.10
2023-01-27T11:48:02.661Z,33.00
2023-01-27T11:50:32.132Z,33.50
2023-01-27T11:53:20.346Z,43.60
2023-01-27T11:55:54.599Z,44.60
2023-01-27T11:58:27.487Z,46.10
2023-01-27T12:00:58.175Z,42.60
2023-01-27T12:03:45.038Z,35.70
2023-01-27T12:06:26.740Z,39.70
2023-01-27T12:08:54.536Z,37.20
2023-01-27T12:11:24.026Z,42.70
2023-01-27T12:13:57.153Z,33.10
2023-01-27T12:16:27.420Z,34.80
2023-01-27T12:19:15.550Z,37.50
2023-01-27T12:21:48.257Z,36.30
2023-01-27T12:24:21.251Z,37.20
2023-01-27T12:26:51.525Z,36.70
2023-01-27T12:29:23.043Z,36.90
2023-01-27T12:31:51.736Z,37.50
2023-01-27T12:34:28.761Z,36.60
2023-01-27T12:36:57.991Z,37.40
2023-01-27T12:39:28.666Z,36.90
2023-01-27T12:41:56.510Z,39.70
2023-01-27T12:44:26.524Z,43.40
2023-01-27T12:46:57.219Z,39.30
2023-01-27T12:49:29.725Z,37.00
2023-01-27T12:52:01.628Z,35.80
2023-01-27T12:54:32.505Z,42.90
2023-01-27T12:57:11.029Z,41.60
2023-01-27T12:59:48.596Z,38.50
2023-01-27T13:02:21.847Z,43.50
2023-01-27T13:04:54.910Z,43.50
2023-01-27T13:07:29.970Z,45.30
2023-01-27T13:10:03.337Z,47.90
2023-01-27T13:12:37.522Z,47.20
2023-01-27T13:15:08.836Z,39.70
2023-01-27T13:17:46.228Z,44.80
2023-01-27T13:20:17.356Z,42.60
2023-01-27T13:22:52.076Z,43.60
2023-01-27T13:25:49.691Z,42.40
2023-01-27T13:28:25.119Z,53.50
2023-01-27T13:30:56.256Z,49.40
2023-01-27T13:33:30.705Z,50.40
2023-01-27T13:36:06.415Z,45.00
2023-01-27T13:38:37.777Z,49.60
2023-01-27T13:41:14.493Z,43.30
2023-01-27T13:43:44.504Z,43.30
2023-01-27T13:46:17.177Z,46.20
2023-01-27T13:48:56.410Z,51.60
2023-01-27T13:51:25.845Z,48.70
2023-01-27T13:54:03.616Z,45.70
2023-01-27T13:56:34.398Z,51.60
2023-01-27T13:59:17.170Z,42.30
2023-01-27T14:02:03.736Z,46.50
2023-01-27T14:04:42.045Z,47.90
2023-01-27T14:07:10.003Z,43.90
2023-01-27T14:09:53.270Z,48.50
2023-01-27T14:12:21.097Z,41.50
2023-01-27T14:14:57.768Z,43.70
2023-01-27T14:17:32.783Z,47.50
2023-01-27T14:20:19.258Z,45.10
2023-01-27T14:22:56.293Z,37.50
2023-01-27T14:25:24.354Z,40.70
2023-01-27T14:28:11.097Z,44.80
2023-01-27T14:30:44.512Z,39.50
2023-01-27T14:33:18.415Z,43.80
2023-01-27T14:35:51.708Z,39.20
2023-01-27T14:38:27.266Z,40.70
2023-01-27T14:40:55.155Z,40.20
2023-01-27T14:43:37.268Z,38.10
2023-01-27T14:46:18.141Z,46.70
2023-01-27T14:49:01.544Z,43.10
2023-01-27T14:51:29.569Z,42.40
2023-01-27T14:54:06.758Z,35.00
2023-01-27T14:56:34.674Z,35.80
2023-01-27T14:59:11.611Z,36.60
2023-01-27T15:01:56.578Z,31.20
2023-01-27T15:04:45.925Z,28.90
2023-01-27T15:07:14.433Z,31.10
2023-01-27T15:10:02.858Z,36.00
2023-01-27T15:12:30.779Z,35.20
2023-01-27T15:14:59.459Z,37.20
2023-01-27T15:17:27.540Z,36.70
2023-01-27T15:20:14.036Z,38.60
2023-01-27T15:22:54.054Z,34.30
2023-01-27T15:25:29.916Z,40.90
2023-01-27T15:27:58.580Z,41.30
2023-01-27T15:30:31.218Z,45.00
2023-01-27T15:32:59.227Z,43.30
2023-01-27T15:35:30.379Z,44.10
2023-01-27T15:38:15.231Z,44.00
2023-01-27T15:40:56.553Z,41.80
2023-01-27T15:43:25.635Z,36.60
2023-01-27T15:45:57.320Z,44.60
2023-01-27T15:48:28.182Z,45.90
2023-01-27T15:51:00.677Z,46.60
2023-01-27T15:53:31.793Z,52.20
2023-01-27T15:56:00.627Z,54.40
2023-01-27T15:58:28.453Z,47.70
2023-01-27T16:00:58.278Z,49.70
2023-01-27T16:03:28.374Z,55.80
2023-01-27T16:05:59.034Z,62.20
2023-01-27T16:08:30.354Z,67.50
2023-01-27T16:11:17.243Z,49.60
2023-01-27T16:13:47.868Z,47.00
2023-01-27T16:16:18.781Z,56.00
2023-01-27T16:18:53.195Z,59.30
2023-01-27T16:21:39.821Z,58.50
2023-01-27T16:24:25.154Z,57.60
2023-01-27T16:26:59.943Z,52.40
2023-01-27T16:29:48.843Z,41.00
2023-01-27T16:32:18.911Z,48.70
2023-01-27T16:35:09.580Z,46.90
2023-01-27T16:37:39.766Z,57.40
2023-01-27T16:40:16.323Z,51.50
2023-01-27T16:42:55.948Z,55.60
2023-01-27T16:45:25.446Z,38.80
2023-01-27T16:47:56.979Z,38.60
2023-01-27T16:50:36.794Z,45.10
2023-01-27T16:53:06.062Z,43.30
2023-01-27T16:55:34.641Z,43.30
2023-01-27T16:58:02.645Z,42.10
2023-01-27T17:00:33.482Z,36.20
2023-01-27T17:03:04.250Z,43.60
2023-01-27T17:05:32.560Z,42.20
2023-01-27T17:08:22.722Z,43.40
2023-01-27T17:10:51.988Z,41.20
2023-01-27T17:13:29.066Z,34.80
2023-01-27T17:15:58.023Z,36.70
2023-01-27T17:18:26.028Z,39.40
2023-01-27T17:20:55.367Z,35.80
2023-01-27T17:23:29.754Z,33.10
2023-01-27T17:26:00.172Z,34.20
2023-01-27T17:28:29.183Z,38.60
2023-01-27T17:31:07.654Z,32.50
2023-01-27T17:33:36.742Z,36.80
2023-01-27T17:36:10.266Z,31.90
2023-01-27T17:38:45.484Z,44.60
2023-01-27T17:41:32.291Z,62.70
2023-01-27T17:44:01.761Z,29.80
2023-01-27T17:59:49.447Z,33.80
2023-01-27T18:02:26.156Z,36.40
2023-01-27T18:05:05.973Z,34.80
2023-01-27T18:07:48.525Z,31.50
2023-01-27T18:10:23.041Z,34.50
2023-01-27T18:12:55.983Z,40.40
2023-01-27T18:15:47.591Z,39.70
2023-01-27T18:18:20.756Z,42.60
2023-01-27T18:20:57.583Z,34.80
2023-01-27T18:23:27.856Z,36.10
2023-01-27T18:26:14.891Z,33.00
2023-01-27T18:28:58.874Z,28.50
2023-01-27T18:31:38.568Z,28.40
2023-01-27T18:34:07.186Z,28.40
2023-01-27T18:36:36.248Z,30.60
2023-01-27T18:39:28.514Z,41.00
2023-01-27T18:41:57.081Z,39.30
2023-01-27T18:44:34.772Z,26.30
2023-01-27T18:47:16.660Z,33.30
2023-01-27T18:49:45.255Z,25.90
2023-01-27T18:52:15.980Z,36.90
2023-01-27T18:54:44.112Z,31.80
2023-01-27T18:57:12.161Z,26.00
2023-01-27T18:59:40.427Z,31.70
2023-01-27T19:02:14.034Z,34.90
2023-01-27T19:04:42.529Z,30.50
2023-01-27T19:07:18.325Z,36.30
2023-01-27T19:09:47.981Z,19.90
2023-01-27T19:12:16.155Z,23.20
2023-01-27T19:14:46.703Z,12.70
2023-01-27T19:17:22.227Z,17.40
2023-01-27T19:19:50.696Z,15.10
2023-01-27T19:22:21.242Z,14.80
2023-01-27T19:24:50.717Z,20.70
2023-01-27T19:27:19.395Z,16.80
2023-01-27T19:29:47.582Z,17.40
2023-01-27T19:32:15.891Z,17.50
2023-01-27T19:34:44.053Z,12.60
2023-01-27T19:37:16.205Z,14.20
2023-01-27T19:39:45.437Z,13.60
2023-01-27T19:42:14.694Z,13.40
2023-01-27T19:44:43.071Z,16.60
2023-01-27T19:47:13.412Z,10.00
2023-01-27T19:49:41.582Z,13.00
2023-01-27T19:52:10.219Z,20.10
2023-01-27T19:54:38.591Z,30.40
2023-01-27T19:57:10.834Z,27.60
2023-01-27T19:59:39.582Z,19.00
2023-01-27T20:02:09.110Z,16.00
2023-01-27T20:04:37.535Z,15.80
2023-01-27T20:07:05.815Z,19.80
2023-01-27T20:09:34.423Z,14.70
2023-01-27T20:12:03.488Z,15.10
2023-01-27T20:14:32.021Z,10.60
2023-01-27T20:17:00.446Z,15.30
2023-01-27T20:19:29.653Z,15.50
2023-01-27T20:22:02.135Z,19.30
2023-01-27T20:24:30.698Z,25.10
2023-01-27T20:26:59.732Z,25.20
2023-01-27T20:29:28.506Z,25.60
2023-01-27T20:31:58.275Z,17.50
2023-01-27T20:34:26.987Z,20.20
2023-01-27T20:36:56.255Z,13.40
2023-01-27T20:39:31.835Z,18.60
2023-01-27T20:42:00.967Z,18.30
2023-01-27T20:44:29.575Z,23.40
2023-01-27T20:46:57.927Z,17.40
2023-01-27T20:49:26.695Z,15.80
2023-01-27T20:51:55.506Z,18.70
2023-01-27T20:54:23.876Z,17.30
2023-01-27T20:56:52.113Z,17.30
2023-01-27T20:59:20.157Z,14.60
2023-01-27T21:01:48.418Z,15.70
2023-01-27T21:04:16.441Z,14.80
2023-01-27T21:06:44.654Z,17.80
2023-01-27T21:09:13.270Z,18.20
2023-01-27T21:11:41.551Z,13.70
2023-01-27T21:14:11.161Z,15.70
2023-01-27T21:16:39.580Z,14.50
2023-01-27T21:19:08.458Z,12.40
2023-01-27T21:21:36.674Z,12.20
2023-01-27T21:24:06.238Z,71.90
2023-01-27T21:26:36.592Z,23.80
2023-01-27T21:29:05.171Z,17.70
2023-01-27T21:31:33.539Z,13.20
2023-01-27T21:34:01.829Z,16.40
2023-01-27T21:36:29.796Z,9.80
2023-01-27T21:38:57.934Z,9.50
2023-01-27T21:41:44.538Z,9.50
2023-01-27T21:44:34.008Z,10.30
2023-01-27T21:47:02.078Z,8.90
2023-01-27T21:49:33.138Z,10.90
2023-01-27T21:52:01.000Z,10.10
2023-01-27T21:54:28.930Z,12.20
2023-01-27T21:56:56.977Z,11.80
2023-01-27T21:59:25.275Z,12.30
2023-01-27T22:01:55.385Z,14.10
2023-01-27T22:04:23.511Z,12.00
2023-01-27T22:06:51.403Z,12.50
2023-01-27T22:09:19.607Z,13.20
2023-01-27T22:11:47.558Z,19.10
2023-01-27T22:14:15.257Z,15.40
2023-01-27T22:16:43.073Z,12.30
2023-01-27T22:19:13.934Z,13.60
2023-01-27T22:21:41.785Z,15.60
2023-01-27T22:24:09.795Z,17.80
2023-01-27T22:26:37.572Z,20.70
2023-01-27T22:29:05.363Z,15.80
2023-01-27T22:31:33.152Z,16.00
2023-01-27T22:34:01.223Z,11.70
2023-01-27T22:36:29.103Z,16.00
2023-01-27T22:38:56.911Z,16.80
2023-01-27T22:41:24.692Z,25.70
2023-01-27T22:43:52.484Z,18.50
2023-01-27T22:46:20.356Z,20.10
2023-01-27T22:48:48.230Z,14.20
2023-01-27T22:51:16.577Z,9.70
2023-01-27T22:53:44.485Z,12.80
2023-01-27T22:56:12.286Z,16.70
2023-01-27T22:58:40.118Z,16.00
2023-01-27T23:01:07.884Z,12.10
2023-01-27T23:03:35.831Z,14.50
2023-01-27T23:06:04.615Z,14.20
2023-01-27T23:08:33.996Z,11.90
2023-01-27T23:11:02.671Z,13.60
2023-01-27T23:13:30.780Z,15.00
2023-01-27T23:15:59.065Z,14.10
2023-01-27T23:18:27.241Z,12.70
2023-01-27T23:20:55.297Z,13.20
2023-01-27T23:23:25.144Z,12.20
2023-01-27T23:25:53.073Z,13.20
2023-01-27T23:28:22.171Z,11.50
2023-01-27T23:30:50.873Z,13.40
2023-01-27T23:33:19.564Z,11.50
2023-01-27T23:35:48.854Z,10.40
2023-01-27T23:38:31.695Z,11.40
2023-01-27T23:41:11.510Z,10.20
2023-01-27T23:43:43.429Z,11.30
2023-01-27T23:46:12.577Z,10.00
2023-01-27T23:48:49.463Z,10.50
2023-01-27T23:51:18.253Z,9.00
2023-01-27T23:53:46.637Z,9.50
2023-01-27T23:56:17.788Z,9.30
2023-01-27T23:58:45.977Z,8.30
